Time;durP1;ratioP1;P1;durP2;ratioP2;P2;SDS_P1;SDS_P2;PMS_P1;PMS_P2;Temp;Humidity;BMP_temperature;BMP_pressure;BME280_temperature;BME280_humidity;BME280_pressure;Samples;Min_cycle;Max_cycle;Signal;HPM_P1;HPM_P2
2021/05/22 00:01:56;;;;;;;1.00;0.95;;;;;;;8.90;85.73;94803.78;4971695;28;20024;-63
2021/05/22 00:04:21;;;;;;;2.65;0.95;;;;;;;8.97;86.37;94822.72;4968045;28;20513;-63
2021/05/22 00:06:47;;;;;;;2.65;1.42;;;;;;;9.03;87.41;94801.06;4969757;28;20045;-64
2021/05/22 00:09:12;;;;;;;1.80;1.05;;;;;;;9.28;87.79;94822.78;4969686;28;20046;-64
2021/05/22 00:11:38;;;;;;;2.28;1.60;;;;;;;9.29;87.79;94814.50;4968406;28;20039;-63
2021/05/22 00:14:04;;;;;;;2.20;1.00;;;;;;;9.40;87.74;94822.22;4970986;28;20023;-62
2021/05/22 00:16:30;;;;;;;2.42;1.00;;;;;;;9.09;86.15;94833.56;4970037;28;20042;-63
2021/05/22 00:18:55;;;;;;;1.27;1.17;;;;;;;9.19;87.10;94833.34;4972285;28;20511;-62
2021/05/22 00:21:21;;;;;;;1.40;1.13;;;;;;;9.27;87.32;94840.59;4972128;28;20035;-62
2021/05/22 00:23:46;;;;;;;2.17;1.38;;;;;;;9.25;87.46;94837.44;4971863;28;20078;-62
2021/05/22 00:26:11;;;;;;;0.90;0.90;;;;;;;9.10;86.90;94835.13;4973924;28;20448;-62
2021/05/22 00:28:37;;;;;;;2.58;1.20;;;;;;;9.18;87.69;94831.00;4972103;28;20039;-62
2021/05/22 00:31:02;;;;;;;1.90;1.48;;;;;;;9.36;87.96;94836.09;4973528;28;20575;-62
2021/05/22 00:33:27;;;;;;;2.30;1.48;;;;;;;9.38;87.79;94820.66;4972915;28;20042;-63
2021/05/22 00:35:54;;;;;;;1.65;1.13;;;;;;;9.48;87.52;94830.25;4973416;28;20146;-63
2021/05/22 00:38:19;;;;;;;3.88;0.93;;;;;;;9.35;87.22;94792.06;4975105;28;20227;-63
2021/05/22 00:40:45;;;;;;;3.58;1.23;;;;;;;9.50;87.04;94809.47;4973261;28;20489;-63
2021/05/22 00:43:10;;;;;;;3.15;1.00;;;;;;;9.58;86.91;94815.94;4971400;28;20063;-63
2021/05/22 00:45:36;;;;;;;1.92;1.20;;;;;;;9.59;87.19;94820.16;4972987;28;20043;-64
2021/05/22 00:48:02;;;;;;;2.60;1.00;;;;;;;9.41;84.60;94810.50;4973192;28;20042;-64
2021/05/22 00:50:33;;;;;;;2.60;1.38;;;;;;;9.47;85.86;94819.91;4975056;28;20023;-64
2021/05/22 00:53:01;;;;;;;1.03;0.90;;;;;;;9.49;85.68;94831.03;4971954;28;20042;-63
2021/05/22 00:55:26;;;;;;;2.22;0.95;;;;;;;9.45;85.70;94832.72;4972971;28;20270;-63
2021/05/22 00:57:53;;;;;;;0.90;0.90;;;;;;;9.27;85.71;94808.72;4971512;28;20033;-63
2021/05/22 01:00:28;;;;;;;1.60;0.82;;;;;;;9.31;85.08;94822.94;4972981;28;20094;-63
2021/05/22 01:02:54;;;;;;;1.10;0.90;;;;;;;9.35;85.33;94825.78;4972606;28;20070;-64
2021/05/22 01:05:19;;;;;;;1.17;1.08;;;;;;;9.28;85.04;94822.78;4974662;28;20425;-63
2021/05/22 01:07:47;;;;;;;1.58;1.02;;;;;;;9.21;84.47;94825.84;4972778;28;20031;-63
2021/05/22 01:10:14;;;;;;;1.88;1.40;;;;;;;9.27;85.77;94832.63;4972630;28;20134;-63
2021/05/22 01:12:44;;;;;;;1.77;1.13;;;;;;;9.25;85.10;94837.44;4972360;28;20097;-64
2021/05/22 01:15:13;;;;;;;2.05;1.15;;;;;;;9.22;86.09;94779.66;4972837;28;20400;-63
2021/05/22 01:17:44;;;;;;;2.50;1.40;;;;;;;9.25;84.77;94779.03;4972463;28;20054;-62
2021/05/22 01:20:24;;;;;;;6.47;1.60;;;;;;;9.36;84.87;94793.63;4974652;28;20077;-62
2021/05/22 01:22:52;;;;;;;1.63;0.70;;;;;;;9.28;84.05;94789.06;4971028;28;20035;-62
2021/05/22 01:25:54;;;;;;;0.70;0.60;;;;;;;9.33;84.81;94804.88;4972324;28;20042;-62
2021/05/22 01:28:19;;;;;;;0.70;0.70;;;;;;;9.33;84.59;94796.13;4968972;28;20047;-63
2021/05/22 01:30:46;;;;;;;1.17;0.68;;;;;;;9.32;84.47;94800.66;4972106;28;20321;-62
2021/05/22 01:33:11;;;;;;;1.58;0.60;;;;;;;9.18;82.06;94804.47;4971964;28;20035;-62
2021/05/22 01:35:39;;;;;;;0.30;0.30;;;;;;;9.28;83.50;94806.88;4971199;28;20027;-62
2021/05/22 01:38:04;;;;;;;1.92;0.43;;;;;;;8.69;83.08;94819.38;4973983;28;20031;-62
2021/05/22 01:40:30;;;;;;;0.73;0.60;;;;;;;8.54;84.14;94805.38;4972334;28;20061;-62
2021/05/22 01:42:56;;;;;;;0.52;0.52;;;;;;;8.59;83.88;94799.94;4971916;28;20041;-63
2021/05/22 01:45:28;;;;;;;0.68;0.40;;;;;;;8.77;84.43;94816.81;4972163;28;20046;-62
2021/05/22 01:47:55;;;;;;;1.05;0.30;;;;;;;8.83;84.32;94783.00;4971948;28;20059;-63
2021/05/22 01:50:22;;;;;;;0.60;0.30;;;;;;;9.01;83.79;94789.22;4972590;28;20066;-62
2021/05/22 01:52:53;;;;;;;0.57;0.35;;;;;;;8.99;83.19;94770.16;4971634;28;20401;-63
2021/05/22 01:55:20;;;;;;;0.25;0.25;;;;;;;8.90;83.29;94738.25;4954693;28;20122;-63
2021/05/22 01:57:46;;;;;;;0.20;0.20;;;;;;;8.90;81.96;94766.66;4970576;28;20035;-63
2021/05/22 02:00:13;;;;;;;1.15;0.35;;;;;;;9.02;82.21;94767.69;4971894;28;20042;-62
2021/05/22 02:02:49;;;;;;;0.77;0.30;;;;;;;8.98;82.48;94763.28;4970173;28;20513;-63
2021/05/22 02:05:16;;;;;;;1.00;0.63;;;;;;;8.92;82.34;94775.09;4973741;28;20027;-63
2021/05/22 02:07:43;;;;;;;0.60;0.20;;;;;;;8.91;81.68;94763.72;4971769;28;20053;-62
2021/05/22 02:10:09;;;;;;;0.40;0.25;;;;;;;8.90;81.84;94761.34;4971687;28;20114;-63
2021/05/22 02:12:36;;;;;;;0.35;0.30;;;;;;;8.79;82.05;94748.31;4971244;28;20039;-64
2021/05/22 02:15:03;;;;;;;0.10;0.10;;;;;;;8.90;81.61;94766.66;4971770;28;20548;-63
2021/05/22 02:17:28;;;;;;;3.63;0.38;;;;;;;8.88;81.73;94771.47;4973375;28;20061;-61
2021/05/22 02:19:57;;;;;;;2.78;0.25;;;;;;;8.88;81.74;94760.88;4970257;28;20063;-62
2021/05/22 02:22:23;;;;;;;0.85;0.30;;;;;;;8.57;82.16;94772.97;4970816;28;20038;-63
2021/05/22 02:24:53;;;;;;;0.28;0.13;;;;;;;8.31;84.05;94775.38;4971411;28;20081;-61
2021/05/22 02:27:19;;;;;;;0.60;0.17;;;;;;;8.49;82.93;94754.31;4971245;28;20042;-62
2021/05/22 02:29:46;;;;;;;0.65;0.20;;;;;;;8.62;83.47;94768.63;4971309;28;20031;-63
2021/05/22 02:32:13;;;;;;;0.10;0.10;;;;;;;8.12;84.60;94782.66;4972794;28;20535;-62
2021/05/22 02:34:47;;;;;;;0.20;0.20;;;;;;;8.43;84.09;94788.13;4971149;28;20035;-62
2021/05/22 02:37:16;;;;;;;0.28;0.28;;;;;;;8.61;84.22;94769.72;4971119;28;20382;-62
2021/05/22 02:39:43;;;;;;;0.57;0.20;;;;;;;8.59;84.16;94751.44;4970771;28;20146;-61
2021/05/22 02:42:14;;;;;;;0.22;0.20;;;;;;;8.74;83.96;94726.44;4970774;28;20031;-61
2021/05/22 02:44:41;;;;;;;0.38;0.20;;;;;;;8.83;83.22;94737.91;4970954;28;20107;-61
2021/05/22 02:47:08;;;;;;;0.20;0.13;;;;;;;8.84;82.86;94742.91;4972824;28;20037;-62
2021/05/22 02:49:41;;;;;;;0.50;0.30;;;;;;;8.86;82.07;94769.13;4971050;28;20043;-62
2021/05/22 02:52:07;;;;;;;0.43;0.15;;;;;;;8.88;82.81;94788.19;4970755;28;20043;-61
2021/05/22 02:54:39;;;;;;;1.73;0.20;;;;;;;8.81;82.38;94772.69;4970581;28;20390;-62
2021/05/22 02:57:06;;;;;;;1.55;0.20;;;;;;;8.24;82.88;94768.88;4969462;28;20034;-62
2021/05/22 02:59:32;;;;;;;1.17;0.20;;;;;;;8.62;82.90;94773.94;4970913;28;20023;-61
2021/05/22 03:02:01;;;;;;;0.70;0.30;;;;;;;8.41;81.98;94778.91;4971609;28;20023;-61
2021/05/22 03:04:27;;;;;;;2.92;0.20;;;;;;;8.58;82.82;94789.66;4969176;28;20401;-62
2021/05/22 03:06:52;;;;;;;1.25;0.13;;;;;;;8.80;82.16;94802.16;4969239;28;20078;-62
2021/05/22 03:09:18;;;;;;;0.10;0.10;;;;;;;8.74;80.77;94790.09;4970735;28;20095;-62
2021/05/22 03:11:43;;;;;;;0.10;0.10;;;;;;;8.81;81.52;94807.16;4969391;28;20026;-62
2021/05/22 03:14:09;;;;;;;1.10;0.28;;;;;;;8.84;81.64;94811.84;4971980;28;20493;-63
2021/05/22 03:16:34;;;;;;;0.73;0.20;;;;;;;9.06;81.87;94794.41;4970391;28;20030;-63
2021/05/22 03:19:00;;;;;;;0.30;0.20;;;;;;;9.00;81.05;94785.75;4969120;28;20058;-62
2021/05/22 03:21:25;;;;;;;0.15;0.10;;;;;;;9.03;80.32;94781.72;4969186;28;20034;-62
2021/05/22 03:23:51;;;;;;;1.13;0.47;;;;;;;9.02;80.14;94761.59;4969945;28;20027;-63
2021/05/22 03:26:16;;;;;;;0.30;0.30;;;;;;;9.03;79.20;94781.72;4972113;28;20023;-64
2021/05/22 03:28:42;;;;;;;0.63;0.20;;;;;;;8.98;79.37;94771.25;4968925;28;20038;-63
2021/05/22 03:31:08;;;;;;;0.43;0.30;;;;;;;9.17;79.40;94777.16;4970256;28;20043;-62
2021/05/22 03:33:33;;;;;;;0.32;0.30;;;;;;;8.77;79.44;94773.59;4969897;28;20077;-61
2021/05/22 03:35:58;;;;;;;0.63;0.25;;;;;;;8.21;81.49;94783.53;4970310;28;20489;-61
2021/05/22 03:38:24;;;;;;;1.42;0.20;;;;;;;8.72;80.62;94779.00;4971996;28;20084;-62
2021/05/22 03:40:49;;;;;;;0.95;0.38;;;;;;;8.89;80.45;94754.47;4970057;28;20125;-63
2021/05/22 03:43:15;;;;;;;0.73;0.30;;;;;;;8.79;79.63;94769.53;4968353;28;20178;-62
2021/05/22 03:45:40;;;;;;;0.45;0.20;;;;;;;8.47;79.50;94770.53;4970112;28;20135;-62
2021/05/22 03:48:06;;;;;;;0.52;0.30;;;;;;;8.61;80.14;94756.47;4970121;28;20038;-62
2021/05/22 03:50:31;;;;;;;7.78;0.60;;;;;;;8.99;79.86;94759.53;4971922;28;20030;-61
2021/05/22 03:52:57;;;;;;;1.58;0.20;;;;;;;9.12;79.39;94756.03;4969629;28;20050;-62
2021/05/22 03:55:22;;;;;;;0.20;0.20;;;;;;;9.22;78.72;94766.41;4969890;28;20493;-63
2021/05/22 03:57:47;;;;;;;1.13;0.17;;;;;;;8.99;78.14;94773.56;4969742;28;20027;-62
2021/05/22 04:00:14;;;;;;;0.40;0.35;;;;;;;9.29;78.52;94774.69;4969959;28;20031;-62
2021/05/22 04:02:39;;;;;;;0.30;0.30;;;;;;;9.06;77.16;94736.03;4969519;28;20066;-63
2021/05/22 04:05:06;;;;;;;0.73;0.30;;;;;;;8.86;77.07;94761.19;4971703;28;20424;-63
2021/05/22 04:07:31;;;;;;;0.20;0.20;;;;;;;8.70;78.56;94784.63;4968528;28;20051;-62
2021/05/22 04:09:57;;;;;;;0.60;0.30;;;;;;;8.81;78.63;94785.16;4970258;28;20027;-62
2021/05/22 04:12:22;;;;;;;0.47;0.20;;;;;;;8.90;79.23;94796.59;4969441;28;20031;-62
2021/05/22 04:14:48;;;;;;;1.52;0.25;;;;;;;8.92;78.86;94786.50;4968552;28;20037;-63
2021/05/22 04:17:13;;;;;;;0.30;0.30;;;;;;;9.32;78.64;94800.66;4970269;28;20500;-62
2021/05/22 04:19:38;;;;;;;0.73;0.30;;;;;;;9.27;77.78;94792.81;4968686;28;20035;-63
2021/05/22 04:22:04;;;;;;;0.93;0.43;;;;;;;9.56;78.12;94815.44;4969890;28;20114;-62
2021/05/22 04:24:29;;;;;;;2.15;0.32;;;;;;;9.31;77.20;94814.19;4969512;28;20046;-62
2021/05/22 04:26:55;;;;;;;0.50;0.30;;;;;;;9.14;77.56;94787.56;4968436;28;20070;-62
2021/05/22 04:29:20;;;;;;;0.10;0.10;;;;;;;9.12;76.70;94803.81;4971516;28;20046;-63
2021/05/22 04:31:45;;;;;;;0.40;0.32;;;;;;;8.98;76.44;94797.75;4969784;28;20043;-63
2021/05/22 04:34:11;;;;;;;0.30;0.25;;;;;;;9.18;77.38;94829.13;4969252;28;20047;-63
2021/05/22 04:36:37;;;;;;;0.40;0.40;;;;;;;9.23;76.93;94818.38;4968200;28;20090;-62
2021/05/22 04:39:03;;;;;;;0.63;0.30;;;;;;;9.36;76.94;94809.53;4969601;28;20043;-62
2021/05/22 04:41:28;;;;;;;1.42;0.32;;;;;;;9.60;77.43;94805.78;4971435;28;20061;-62
2021/05/22 04:43:54;;;;;;;1.38;0.30;;;;;;;9.67;75.61;94792.84;4969008;28;20078;-62
2021/05/22 04:46:19;;;;;;;0.75;0.30;;;;;;;9.85;75.35;94814.94;4968131;28;20043;-63
2021/05/22 04:48:45;;;;;;;1.88;0.40;;;;;;;9.61;74.57;94828.59;4969317;28;20043;-62
2021/05/22 04:51:11;;;;;;;0.70;0.28;;;;;;;9.73;74.89;94820.84;4969259;28;20030;-62
2021/05/22 04:53:37;;;;;;;1.85;0.40;;;;;;;10.00;75.53;94845.66;4968970;28;20465;-62
2021/05/22 04:56:02;;;;;;;0.20;0.20;;;;;;;10.07;74.77;94830.03;4969821;28;20038;-63
2021/05/22 04:58:28;;;;;;;0.22;0.20;;;;;;;9.78;73.37;94841.97;4969359;28;20038;-63
2021/05/22 05:00:53;;;;;;;0.47;0.25;;;;;;;9.73;73.06;94814.75;4969493;28;20035;-63
2021/05/22 05:03:18;;;;;;;0.80;0.20;;;;;;;9.92;72.85;94852.47;4970527;28;20489;-64
2021/05/22 05:05:45;;;;;;;2.92;0.30;;;;;;;10.14;72.76;94830.38;4972719;28;20121;-63
2021/05/22 05:08:14;;;;;;;1.20;0.10;;;;;;;10.35;72.95;94828.75;4974636;28;20053;-63
2021/05/22 05:10:39;;;;;;;0.10;0.10;;;;;;;10.09;71.58;94826.00;4971654;28;20039;-63
2021/05/22 05:13:05;;;;;;;2.67;0.30;;;;;;;10.27;71.87;94848.09;4972433;28;20129;-63
2021/05/22 05:15:30;;;;;;;0.88;0.40;;;;;;;10.26;70.92;94838.56;4972790;28;20117;-63
2021/05/22 05:17:55;;;;;;;3.70;0.40;;;;;;;10.45;72.02;94819.69;4971208;28;20127;-63
2021/05/22 05:20:21;;;;;;;0.20;0.20;;;;;;;10.29;71.47;94826.56;4974363;28;20162;-63
2021/05/22 05:22:50;;;;;;;0.70;0.25;;;;;;;10.33;71.14;94833.56;4972141;28;20062;-62
2021/05/22 05:25:16;;;;;;;0.68;0.30;;;;;;;10.57;71.27;94843.81;4972416;28;20716;-63
2021/05/22 05:27:41;;;;;;;0.43;0.13;;;;;;;10.72;71.25;94817.84;4972416;28;20046;-62
2021/05/22 05:30:07;;;;;;;0.17;0.17;;;;;;;11.09;70.59;94838.50;4972448;28;20042;-62
2021/05/22 05:32:33;;;;;;;0.70;0.20;;;;;;;10.57;68.65;94833.16;4970776;28;20646;-62
2021/05/22 05:34:58;;;;;;;0.60;0.20;;;;;;;10.48;68.58;94827.03;4974215;28;20027;-62
2021/05/22 05:37:23;;;;;;;1.08;0.38;;;;;;;10.89;68.50;94820.50;4972331;28;20445;-62
2021/05/22 05:39:49;;;;;;;1.42;0.40;;;;;;;10.59;69.62;94833.63;4972078;28;20047;-63
2021/05/22 05:42:14;;;;;;;0.32;0.20;;;;;;;10.88;69.21;94837.56;4971879;28;20035;-63
2021/05/22 05:44:39;;;;;;;3.30;0.50;;;;;;;10.94;68.70;94826.44;4971821;28;20070;-63
2021/05/22 05:47:05;;;;;;;0.90;0.25;;;;;;;10.73;69.20;94846.78;4973986;28;20558;-63
2021/05/22 05:49:30;;;;;;;1.55;0.38;;;;;;;11.08;69.36;94839.59;4972106;28;20093;-63
2021/05/22 05:51:59;;;;;;;0.77;0.30;;;;;;;11.20;68.74;94829.09;4971983;28;20117;-63
2021/05/22 05:54:26;;;;;;;0.77;0.30;;;;;;;11.20;67.52;94844.28;4970464;28;20039;-63
2021/05/22 05:56:52;;;;;;;0.38;0.30;;;;;;;11.54;68.41;94816.84;4971807;28;20027;-64
2021/05/22 05:59:18;;;;;;;1.90;0.25;;;;;;;11.44;66.85;94825.16;4973690;28;20661;-63
2021/05/22 06:01:44;;;;;;;0.88;0.30;;;;;;;11.95;66.89;94824.25;4971822;28;20030;-63
2021/05/22 06:04:09;;;;;;;0.85;0.50;;;;;;;12.15;66.52;94821.97;4971154;28;20512;-63
2021/05/22 06:06:36;;;;;;;1.08;0.30;;;;;;;11.45;65.54;94824.84;4971724;28;20101;-63
2021/05/22 06:09:02;;;;;;;2.58;0.50;;;;;;;11.63;65.40;94832.81;4971626;28;20043;-64
2021/05/22 06:11:30;;;;;;;1.48;0.32;;;;;;;11.91;66.35;94831.31;4973624;28;20054;-64
2021/05/22 06:13:56;;;;;;;1.70;0.50;;;;;;;12.18;65.61;94824.81;4970661;28;20069;-63
2021/05/22 06:16:34;;;;;;;1.10;0.32;;;;;;;12.47;65.00;94825.88;4970911;28;20249;-63
2021/05/22 06:19:00;;;;;;;0.30;0.20;;;;;;;12.47;63.85;94821.34;4971576;28;20042;-63
2021/05/22 06:21:26;;;;;;;1.42;0.40;;;;;;;12.05;64.06;94833.00;4970154;28;20030;-64
2021/05/22 06:23:52;;;;;;;2.13;0.40;;;;;;;12.49;64.37;94829.03;4970928;28;20026;-61
2021/05/22 06:26:17;;;;;;;1.38;0.50;;;;;;;12.18;64.49;94819.47;4973070;28;20033;-63
2021/05/22 06:28:43;;;;;;;0.90;0.40;;;;;;;12.31;64.92;94833.66;4970136;28;20400;-63
2021/05/22 06:31:08;;;;;;;1.98;0.45;;;;;;;11.74;64.68;94833.25;4971320;28;20121;-62
2021/05/22 06:33:34;;;;;;;1.38;0.50;;;;;;;11.59;66.88;94839.84;4970766;28;20035;-63
2021/05/22 06:36:00;;;;;;;4.10;0.40;;;;;;;11.23;67.85;94848.22;4971297;28;20031;-62
2021/05/22 06:38:25;;;;;;;2.47;0.40;;;;;;;11.51;67.49;94844.09;4972869;28;20026;-63
2021/05/22 06:40:51;;;;;;;0.88;0.60;;;;;;;11.57;67.16;94829.53;4971161;28;20056;-63
2021/05/22 06:43:17;;;;;;;2.33;0.63;;;;;;;11.61;68.06;94842.97;4970616;28;20703;-63
2021/05/22 06:45:44;;;;;;;1.10;0.40;;;;;;;11.38;66.55;94845.84;4971040;28;20049;-63
2021/05/22 06:48:12;;;;;;;3.83;0.88;;;;;;;11.28;68.14;94854.16;4970993;28;20508;-63
2021/05/22 06:50:38;;;;;;;2.38;0.50;;;;;;;11.64;68.21;94845.81;4970768;28;20027;-63
2021/05/22 06:53:05;;;;;;;0.70;0.45;;;;;;;11.95;67.04;94839.47;4972350;28;20034;-64
2021/05/22 06:55:30;;;;;;;2.53;0.50;;;;;;;11.77;64.70;94846.69;4969539;28;20050;-62
2021/05/22 06:57:56;;;;;;;1.73;0.60;;;;;;;11.84;65.03;94843.59;4970840;28;20392;-59
2021/05/22 07:00:21;;;;;;;4.70;0.70;;;;;;;12.39;67.21;94848.06;4970557;28;20287;-61
2021/05/22 07:02:47;;;;;;;3.05;0.90;;;;;;;12.70;64.70;94845.84;4970273;28;20031;-60
2021/05/22 07:05:13;;;;;;;1.90;0.80;;;;;;;12.72;63.28;94850.84;4972472;28;20077;-59
2021/05/22 07:07:40;;;;;;;2.55;0.57;;;;;;;12.15;64.46;94854.75;4970565;28;20039;-62
2021/05/22 07:10:06;;;;;;;3.33;0.47;;;;;;;11.02;64.53;94848.06;4970555;28;20039;-60
2021/05/22 07:12:32;;;;;;;3.72;0.60;;;;;;;11.15;65.80;94869.19;4968967;28;20039;-63
2021/05/22 07:14:57;;;;;;;2.28;0.82;;;;;;;11.07;64.92;94869.22;4970460;28;20035;-61
2021/05/22 07:17:22;;;;;;;3.30;0.70;;;;;;;11.70;65.08;94862.41;4972189;28;20023;-64
2021/05/22 07:19:48;;;;;;;3.42;0.77;;;;;;;12.18;64.02;94861.31;4970540;28;20039;-64
2021/05/22 07:22:13;;;;;;;1.85;0.60;;;;;;;12.18;62.88;94848.78;4969867;28;20453;-66
2021/05/22 07:24:38;;;;;;;10.32;1.77;;;;;;;11.52;63.06;94800.41;4985594;28;20512;-65
2021/05/22 07:27:04;;;;;;;5.72;1.13;;;;;;;11.99;63.05;94863.63;4988402;28;20038;-66
2021/05/22 07:29:30;;;;;;;2.00;0.63;;;;;;;11.42;61.83;94862.78;4991418;28;20030;-64
2021/05/22 07:31:56;;;;;;;5.00;0.73;;;;;;;11.45;63.07;94837.38;4988263;28;20500;-64
2021/05/22 07:34:21;;;;;;;3.30;0.60;;;;;;;11.90;61.10;94852.97;4989008;28;20043;-65
2021/05/22 07:36:47;;;;;;;3.33;0.60;;;;;;;11.88;61.53;94849.84;4989556;28;20042;-63
2021/05/22 07:39:14;;;;;;;1.98;0.80;;;;;;;11.99;62.51;94851.06;4989541;28;20038;-63
2021/05/22 07:41:40;;;;;;;2.28;0.60;;;;;;;11.92;61.39;94846.22;4989321;28;20137;-68
2021/05/22 07:44:06;;;;;;;2.35;0.80;;;;;;;12.42;60.31;94844.75;4990967;28;20037;-70
2021/05/22 07:46:32;;;;;;;3.30;1.00;;;;;;;11.90;59.71;94843.09;4989293;28;20039;-65
2021/05/22 07:48:57;;;;;;;3.00;0.93;;;;;;;11.68;61.01;94853.94;4989284;28;20506;-64
2021/05/22 07:51:23;;;;;;;2.75;0.88;;;;;;;12.08;61.00;94851.81;4988060;28;20053;-70
2021/05/22 07:53:49;;;;;;;9.93;1.05;;;;;;;11.85;58.18;94850.47;4987833;28;20018;-74
2021/05/22 07:56:14;;;;;;;2.38;1.00;;;;;;;12.43;58.01;94795.63;4991008;28;20077;-68
2021/05/22 07:58:40;;;;;;;3.95;1.05;;;;;;;12.81;56.66;94846.25;4989325;28;20050;-72
2021/05/22 08:01:05;;;;;;;4.03;1.00;;;;;;;12.64;53.82;94830.31;4987940;28;20079;-67
2021/05/22 08:03:31;;;;;;;2.90;1.02;;;;;;;13.41;54.34;94852.22;4988620;28;20511;-67
2021/05/22 08:05:56;;;;;;;3.15;0.70;;;;;;;12.25;56.31;94831.50;4987102;28;20128;-71
2021/05/22 08:08:22;;;;;;;3.70;1.20;;;;;;;13.29;53.88;94822.78;4991448;28;20038;-69
2021/05/22 08:10:47;;;;;;;3.85;0.90;;;;;;;14.23;53.20;94838.94;4988160;28;20070;-70
2021/05/22 08:13:13;;;;;;;4.00;0.90;;;;;;;14.69;50.82;94852.97;4988539;28;20030;-65
2021/05/22 08:15:39;;;;;;;4.13;0.98;;;;;;;14.74;50.04;94858.09;4989372;28;20484;-65
2021/05/22 08:18:04;;;;;;;3.95;0.82;;;;;;;13.42;52.43;94851.13;4986739;28;20042;-66
2021/05/22 08:20:30;;;;;;;3.08;0.73;;;;;;;13.44;51.70;94840.88;4991031;28;20026;-68
2021/05/22 08:22:55;;;;;;;3.83;0.93;;;;;;;13.24;52.13;94850.50;4988549;28;20062;-64
2021/05/22 08:25:21;;;;;;;3.10;0.80;;;;;;;13.86;52.56;94840.78;4988976;28;20051;-66
2021/05/22 08:27:49;;;;;;;5.13;1.00;;;;;;;13.86;51.89;94838.09;4988816;28;20125;-63
2021/05/22 08:30:15;;;;;;;5.60;1.33;;;;;;;13.52;51.08;94851.50;4988712;28;20035;-62
2021/05/22 08:32:41;;;;;;;4.63;1.00;;;;;;;13.03;51.29;94847.81;4988503;28;20031;-63
2021/05/22 08:35:07;;;;;;;4.03;1.42;;;;;;;14.35;50.01;94846.97;4990695;28;20535;-62
2021/05/22 08:37:32;;;;;;;5.10;0.98;;;;;;;15.15;48.23;94848.19;4989251;28;20137;-62
2021/05/22 08:39:58;;;;;;;4.70;1.30;;;;;;;14.90;47.85;94842.16;4992696;28;20034;-63
2021/05/22 08:42:28;;;;;;;3.60;0.95;;;;;;;14.91;46.62;94847.16;4992168;28;20038;-65
2021/05/22 08:45:13;;;;;;;3.60;1.00;;;;;;;14.46;48.00;94850.75;4991465;28;20042;-64
2021/05/22 08:47:39;;;;;;;3.50;1.25;;;;;;;14.24;49.47;94854.66;4992699;28;20018;-64
2021/05/22 08:50:07;;;;;;;5.88;1.00;;;;;;;13.33;47.70;94867.22;4994457;28;20023;-63
2021/05/22 08:52:33;;;;;;;4.78;1.35;;;;;;;13.19;49.19;94835.41;4992178;28;20436;-63
2021/05/22 08:54:59;;;;;;;3.50;1.02;;;;;;;14.19;47.93;94848.75;4992466;28;20046;-62
2021/05/22 08:57:24;;;;;;;2.00;0.70;;;;;;;13.85;46.46;94833.88;4992366;28;20046;-63
2021/05/22 08:59:50;;;;;;;3.67;0.77;;;;;;;13.43;47.03;94861.47;4991149;28;20076;-67
2021/05/22 09:02:21;;;;;;;2.85;0.60;;;;;;;12.65;47.14;94854.03;4993746;28;20453;-66
2021/05/22 09:05:15;;;;;;;1.75;0.40;;;;;;;13.03;46.65;94866.50;4991151;28;20112;-66
2021/05/22 09:07:51;;;;;;;7.85;2.83;;;;;;;14.08;47.18;94864.44;4992430;28;20384;-63
2021/05/22 09:10:20;;;;;;;3.40;1.33;;;;;;;14.31;46.52;94859.44;4992193;28;20054;-65
2021/05/22 09:12:51;;;;;;;3.53;2.17;;;;;;;14.88;45.72;94876.50;4991411;28;20655;-66
2021/05/22 09:15:24;;;;;;;4.87;0.97;;;;;;;13.90;45.93;94805.03;4988963;28;20088;-70
2021/05/22 09:17:55;;;;;;;3.25;0.80;;;;;;;13.59;46.21;94810.88;4991292;28;20484;-71
2021/05/22 09:20:37;;;;;;;2.33;0.60;;;;;;;13.72;46.93;94836.53;4994442;28;20026;-76
2021/05/22 09:23:05;;;;;;;5.53;1.13;;;;;;;15.42;41.89;94852.03;4989357;28;20042;-66
2021/05/22 09:25:36;;;;;;;1.58;0.68;;;;;;;15.17;44.00;94864.75;4991819;28;20069;-67
2021/05/22 09:28:03;;;;;;;1.95;0.70;;;;;;;13.81;46.61;94859.69;4992002;28;20038;-66
2021/05/22 09:30:31;;;;;;;3.60;0.80;;;;;;;14.83;43.84;94861.44;4991945;28;20030;-67
2021/05/22 09:32:56;;;;;;;2.90;0.80;;;;;;;14.72;43.98;94863.03;4991589;28;20042;-63
2021/05/22 09:35:24;;;;;;;2.13;0.80;;;;;;;14.96;43.59;94892.47;4993772;28;20109;-64
2021/05/22 09:37:49;;;;;;;3.58;1.25;;;;;;;15.03;45.38;94870.44;4991678;28;20038;-59
2021/05/22 09:40:22;;;;;;;2.60;0.75;;;;;;;16.38;44.19;94862.59;4991271;28;20045;-59
2021/05/22 09:42:48;;;;;;;3.25;0.80;;;;;;;15.44;43.86;94868.56;4989833;28;20073;-62
2021/05/22 09:45:43;;;;;;;1.70;0.45;;;;;;;14.70;46.60;94874.09;4990386;28;20419;-61
2021/05/22 09:48:13;;;;;;;2.33;0.77;;;;;;;14.09;46.55;94859.88;4991723;28;20041;-69
2021/05/22 09:50:42;;;;;;;3.67;0.70;;;;;;;13.67;48.15;94863.47;4989341;28;20022;-66
2021/05/22 09:53:25;;;;;;;2.55;0.65;;;;;;;13.87;47.56;94872.53;4992903;28;20073;-63
2021/05/22 09:56:11;;;;;;;3.55;0.65;;;;;;;14.03;46.73;94862.78;4989946;28;20070;-67
2021/05/22 09:58:54;;;;;;;2.20;1.00;;;;;;;14.18;46.89;94871.25;4991345;28;20047;-64
2021/05/22 10:01:29;;;;;;;3.85;0.55;;;;;;;15.23;44.69;94869.50;4991100;28;20073;-65
2021/05/22 10:03:55;;;;;;;3.50;0.90;;;;;;;15.24;44.99;94856.88;4990860;28;20495;-65
2021/05/22 10:06:21;;;;;;;3.92;0.90;;;;;;;14.77;44.12;94876.19;4991276;28;20125;-65
2021/05/22 10:08:46;;;;;;;1.80;0.75;;;;;;;15.99;43.08;94846.28;4990878;28;20044;-64
2021/05/22 10:11:12;;;;;;;3.50;0.80;;;;;;;15.69;42.99;94856.63;4993005;28;20066;-68
2021/05/22 10:13:41;;;;;;;2.83;0.70;;;;;;;16.40;42.48;94844.22;4990380;28;20500;-66
2021/05/22 10:16:07;;;;;;;1.92;0.80;;;;;;;15.66;42.53;94848.47;4990813;28;20050;-66
2021/05/22 10:18:33;;;;;;;3.58;0.70;;;;;;;16.96;41.85;94838.59;4989710;28;20254;-64
2021/05/22 10:21:00;;;;;;;3.05;0.70;;;;;;;17.15;42.17;94840.53;4991006;28;20118;-66
2021/05/22 10:23:26;;;;;;;2.28;0.60;;;;;;;17.40;40.37;94835.66;4992327;28;20038;-64
2021/05/22 10:25:54;;;;;;;6.10;0.80;;;;;;;16.68;40.01;94814.53;4990776;28;20657;-65
2021/05/22 10:28:20;;;;;;;3.83;1.13;;;;;;;17.15;41.03;94825.19;4990751;28;20038;-74
2021/05/22 10:30:47;;;;;;;3.03;0.80;;;;;;;16.56;41.89;94850.34;4990826;28;20034;-64
2021/05/22 10:33:14;;;;;;;1.35;0.47;;;;;;;16.11;42.16;94846.22;4990361;28;20042;-66
2021/05/22 10:35:41;;;;;;;1.50;0.70;;;;;;;16.09;41.50;94856.50;4990489;28;20027;-63
2021/05/22 10:38:06;;;;;;;1.33;0.77;;;;;;;15.90;44.03;94826.91;4992345;28;20031;-64
2021/05/22 10:40:44;;;;;;;2.53;0.50;;;;;;;15.57;44.38;94840.59;4990658;28;20038;-65
2021/05/22 10:43:09;;;;;;;1.13;0.50;;;;;;;14.94;44.63;94848.38;4988680;28;20050;-64
2021/05/22 10:45:38;;;;;;;3.30;0.75;;;;;;;14.86;44.69;94834.00;4990116;28;20061;-62
2021/05/22 10:48:06;;;;;;;1.30;0.60;;;;;;;15.19;45.02;94841.81;4990267;28;20089;-64
2021/05/22 10:50:37;;;;;;;1.73;0.63;;;;;;;14.83;44.05;94802.53;4992310;28;20041;-67
2021/05/22 10:53:23;;;;;;;2.65;0.90;;;;;;;15.18;45.36;94826.88;4988507;28;20185;-66
2021/05/22 10:56:08;;;;;;;1.40;0.65;;;;;;;15.77;42.93;94815.47;4989263;28;20046;-65
2021/05/22 10:58:36;;;;;;;3.08;0.60;;;;;;;15.22;44.94;94814.38;4989940;28;20042;-62
2021/05/22 11:01:23;;;;;;;2.75;0.80;;;;;;;15.42;43.61;94828.69;4990220;28;20081;-63
2021/05/22 11:06:55;;;;;;;3.60;0.63;;;;;;;14.64;44.56;94829.94;4989720;28;20407;-64
2021/05/22 11:11:56;;;;;;;3.47;0.80;;;;;;;15.18;43.04;94821.53;4989892;28;20035;-67
2021/05/22 11:14:52;;;;;;;1.20;0.35;;;;;;;15.48;42.14;94824.63;4991004;28;20038;-68
2021/05/22 11:17:20;;;;;;;3.33;0.70;;;;;;;15.33;42.48;94822.69;4989836;28;20038;-68
2021/05/22 11:19:59;;;;;;;2.90;0.47;;;;;;;15.09;42.39;94832.38;4987990;28;20052;-68
2021/05/22 11:22:32;;;;;;;1.23;0.50;;;;;;;15.40;41.91;94822.09;4987845;28;20133;-67
2021/05/22 11:25:07;;;;;;;2.85;0.60;;;;;;;15.52;40.36;94808.66;4988249;28;20034;-68
2021/05/22 11:27:46;;;;;;;1.48;0.47;;;;;;;15.94;40.03;94827.78;4989493;28;20058;-73
2021/05/22 11:30:14;;;;;;;1.55;0.60;;;;;;;17.03;39.33;94822.63;4988264;28;20098;-67
2021/05/22 11:32:47;;;;;;;1.60;0.60;;;;;;;16.95;37.44;94783.31;4989088;28;20022;-68
2021/05/22 11:35:28;;;;;;;0.77;0.50;;;;;;;17.42;37.13;94822.63;4991275;28;20034;-67
2021/05/22 11:38:00;;;;;;;2.00;0.70;;;;;;;15.33;40.99;94830.75;4989650;28;20508;-66
2021/05/22 11:40:34;;;;;;;0.93;0.45;;;;;;;14.67;41.35;94837.25;4989544;28;20077;-67
2021/05/22 11:43:29;;;;;;;1.88;0.70;;;;;;;14.73;41.78;94825.19;4988750;28;20034;-67
2021/05/22 11:45:55;;;;;;;1.85;0.82;;;;;;;14.86;40.75;94834.00;4988064;28;20484;-66